EKYT/AAL METAR and TAF weather

Enter ICAO airport designator
Station Type Date Time Source
EKYT METAR 2021/05/11 15:50 UTC NOAA

EKYT 111550Z AUTO 03008KT 9999 FEW024/// BKN160/// 14/09 Q1012


Station Type Date Time Source
EKYT Decoded METAR 2021/05/11 15:50 UTC NOAA

Aalborg, Denmark (EKYT) 57-06N 009-51E 13M
May 11, 2021 - 11:50 AM EDT / 2021.05.11 1550 UTC
Wind: from the NNE (030 degrees) at 9 MPH (8 KT):0
Visibility: greater than 7 mile(s):0
Sky conditions: mostly cloudy
Temperature: 57 F (14 C)
Dew Point: 48 F (9 C)
Relative Humidity: 71%
Pressure (altimeter): 29.88 in. Hg (1012 hPa)
ob: EKYT 111550Z AUTO 03008KT 9999 FEW024/// BKN160/// 14/09 Q1012
cycle: 16

Station Type Date Time Source
EKYT TAF 2021/05/11 15:31 UTC NOAA

TAF EKYT 111406Z 1115/1215 03008KT 9999 FEW050 BKN150
TEMPO 1120/1212 4000 SHRA BKN008 BKN050CB
BECMG 1207/1210 29008KT

Example: see airport list